createdAt,value
2018-12-20T00:00:44.462Z,63.17
2018-12-20T00:03:12.193Z,57.70
2018-12-20T00:05:39.879Z,59.17
2018-12-20T00:08:07.604Z,62.33
2018-12-20T00:10:35.332Z,59.53
2018-12-20T00:13:03.017Z,55.73
2018-12-20T00:15:31.454Z,53.37
2018-12-20T00:17:59.130Z,55.87
2018-12-20T00:20:26.760Z,55.27
2018-12-20T00:22:55.381Z,61.43
2018-12-20T00:25:23.213Z,56.53
2018-12-20T00:27:50.895Z,69.47
2018-12-20T00:30:19.408Z,53.73
2018-12-20T00:32:47.104Z,48.77
2018-12-20T00:35:14.819Z,63.87
2018-12-20T00:37:42.562Z,56.07
2018-12-20T00:40:10.197Z,63.77
2018-12-20T00:42:37.814Z,58.80
2018-12-20T00:45:06.633Z,75.30
2018-12-20T00:47:35.292Z,55.83
2018-12-20T00:50:02.946Z,52.30
2018-12-20T00:52:30.578Z,61.57
2018-12-20T00:54:58.223Z,55.73
2018-12-20T00:57:27.074Z,60.73
2018-12-20T00:59:55.297Z,66.43
2018-12-20T01:02:23.024Z,57.83
2018-12-20T01:04:50.814Z,66.87
2018-12-20T01:07:18.684Z,59.80
2018-12-20T01:09:47.245Z,60.00
2018-12-20T01:12:14.885Z,65.77
2018-12-20T01:14:45.489Z,68.37
2018-12-20T01:17:12.404Z,67.87
2018-12-20T01:19:40.071Z,71.63
2018-12-20T01:22:07.840Z,57.33
2018-12-20T01:24:35.579Z,61.50
2018-12-20T01:27:04.265Z,67.77
2018-12-20T01:29:32.102Z,67.93
2018-12-20T01:32:00.008Z,67.50
2018-12-20T01:34:27.898Z,59.50
2018-12-20T01:36:56.957Z,65.50
2018-12-20T01:39:25.727Z,68.17
2018-12-20T01:41:53.426Z,65.43
2018-12-20T01:44:22.079Z,80.63
2018-12-20T01:46:50.512Z,71.03
2018-12-20T01:49:18.909Z,67.47
2018-12-20T01:51:46.546Z,74.00
2018-12-20T01:54:14.328Z,59.93
2018-12-20T01:56:43.121Z,66.87
2018-12-20T01:59:11.668Z,66.87
2018-12-20T02:01:39.435Z,63.17
2018-12-20T02:04:08.059Z,61.70
2018-12-20T02:06:36.562Z,69.23
2018-12-20T02:09:07.234Z,71.57
2018-12-20T02:11:35.756Z,67.97
2018-12-20T02:14:03.645Z,68.43
2018-12-20T02:16:32.358Z,68.67
2018-12-20T02:19:00.067Z,67.50
2018-12-20T02:21:27.874Z,77.97
2018-12-20T02:23:56.339Z,56.20
2018-12-20T02:26:24.049Z,66.83
2018-12-20T02:28:52.651Z,72.13
2018-12-20T02:31:20.330Z,66.47
2018-12-20T02:33:48.134Z,69.57
2018-12-20T02:36:16.804Z,76.63
2018-12-20T02:38:45.366Z,62.33
2018-12-20T02:41:13.248Z,64.77
2018-12-20T02:43:42.337Z,65.47
2018-12-20T02:46:11.044Z,74.63
2018-12-20T02:48:38.964Z,70.93
2018-12-20T02:51:07.114Z,69.67
2018-12-20T02:53:35.702Z,74.10
2018-12-20T02:56:04.617Z,66.13
2018-12-20T02:58:33.185Z,62.30
2018-12-20T03:01:01.881Z,67.07
2018-12-20T03:03:29.617Z,70.17
2018-12-20T03:05:57.381Z,66.27
2018-12-20T03:08:25.525Z,74.27
2018-12-20T03:10:55.094Z,62.27
2018-12-20T03:13:23.833Z,65.63
2018-12-20T03:15:52.442Z,63.77
2018-12-20T03:18:21.196Z,63.93
2018-12-20T03:20:49.080Z,76.37
2018-12-20T03:23:16.936Z,61.13
2018-12-20T03:25:45.578Z,62.13
2018-12-20T03:28:14.114Z,67.90
2018-12-20T03:30:41.831Z,65.67
2018-12-20T03:33:10.730Z,61.60
2018-12-20T03:35:39.443Z,65.97
2018-12-20T03:38:07.095Z,67.30
2018-12-20T03:40:35.226Z,64.37
2018-12-20T03:43:03.027Z,57.73
2018-12-20T03:45:30.835Z,60.33
2018-12-20T03:47:59.647Z,70.10
2018-12-20T03:50:27.622Z,67.90
2018-12-20T03:52:56.332Z,63.30
2018-12-20T03:55:25.174Z,64.43
2018-12-20T03:57:52.823Z,70.97
2018-12-20T04:00:20.625Z,62.50
2018-12-20T04:02:49.315Z,61.70
2018-12-20T04:05:17.281Z,68.87
2018-12-20T04:07:44.996Z,61.13
2018-12-20T04:10:12.854Z,72.13
2018-12-20T04:12:41.606Z,66.67
2018-12-20T04:15:09.378Z,66.70
2018-12-20T04:17:37.096Z,63.37
2018-12-20T04:20:05.426Z,60.07
2018-12-20T04:22:33.406Z,65.50
2018-12-20T04:25:01.209Z,64.73
2018-12-20T04:27:28.976Z,67.77
2018-12-20T04:29:57.706Z,58.77
2018-12-20T04:32:26.559Z,65.57
2018-12-20T04:34:55.377Z,63.63
2018-12-20T04:37:23.282Z,62.77
2018-12-20T04:39:51.353Z,64.90
2018-12-20T04:42:19.886Z,67.90
2018-12-20T04:44:48.605Z,62.53
2018-12-20T04:47:16.420Z,71.63
2018-12-20T04:49:45.140Z,62.10
2018-12-20T04:52:12.830Z,65.97
2018-12-20T04:54:41.250Z,64.87
2018-12-20T04:57:09.773Z,65.83
2018-12-20T04:59:38.376Z,72.23
2018-12-20T05:02:06.235Z,60.27
2018-12-20T05:04:33.900Z,67.83
2018-12-20T05:07:01.521Z,76.87
2018-12-20T05:09:30.447Z,67.77
2018-12-20T05:11:59.018Z,69.97
2018-12-20T05:14:26.862Z,67.43
2018-12-20T05:16:56.775Z,68.17
2018-12-20T05:19:26.241Z,72.37
2018-12-20T05:21:54.017Z,67.23
2018-12-20T05:24:21.942Z,58.23
2018-12-20T05:26:49.811Z,59.00
2018-12-20T05:29:17.688Z,71.90
2018-12-20T05:31:45.388Z,56.10
2018-12-20T05:34:13.028Z,69.43
2018-12-20T05:36:40.858Z,67.78
2018-12-20T05:39:09.342Z,63.73
2018-12-20T05:41:37.784Z,68.40
2018-12-20T05:44:06.745Z,65.37
2018-12-20T05:46:34.446Z,67.07
2018-12-20T05:49:02.183Z,66.73
2018-12-20T05:51:29.904Z,70.90
2018-12-20T05:53:58.496Z,66.30
2018-12-20T05:56:26.927Z,73.07
2018-12-20T05:58:55.591Z,68.80
2018-12-20T06:01:23.292Z,73.67
2018-12-20T06:03:52.102Z,57.50
2018-12-20T06:06:19.873Z,80.47
2018-12-20T06:08:48.507Z,62.40
2018-12-20T06:11:17.041Z,69.23
2018-12-20T06:13:44.737Z,59.03
2018-12-20T06:16:13.125Z,70.77
2018-12-20T06:18:41.030Z,67.70
2018-12-20T06:21:09.523Z,66.07
2018-12-20T06:23:37.178Z,62.70
2018-12-20T06:26:04.872Z,71.70
2018-12-20T06:28:32.499Z,74.47
2018-12-20T06:31:01.051Z,76.87
2018-12-20T06:33:28.696Z,57.87
2018-12-20T06:35:56.318Z,73.30
2018-12-20T06:38:24.624Z,72.33
2018-12-20T06:40:52.282Z,61.97
2018-12-20T06:43:20.043Z,61.20
2018-12-20T06:45:47.759Z,65.63
2018-12-20T06:48:15.386Z,64.87
2018-12-20T06:50:43.048Z,55.00
2018-12-20T06:53:10.669Z,67.97
2018-12-20T06:55:38.295Z,59.03
2018-12-20T06:58:06.117Z,72.97
2018-12-20T07:00:33.751Z,63.33
2018-12-20T07:03:02.286Z,66.00
2018-12-20T07:05:29.948Z,65.80
2018-12-20T07:07:58.475Z,73.70
2018-12-20T07:10:27.012Z,61.50
2018-12-20T07:12:55.861Z,66.50
2018-12-20T07:15:23.858Z,55.90
2018-12-20T07:17:51.515Z,63.70
2018-12-20T07:20:19.137Z,72.27
2018-12-20T07:22:46.787Z,59.00
2018-12-20T07:25:15.230Z,58.97
2018-12-20T07:27:42.846Z,66.80
2018-12-20T07:30:12.043Z,65.80
2018-12-20T07:32:39.742Z,68.70
2018-12-20T07:35:07.731Z,60.43
2018-12-20T07:37:36.169Z,77.23
2018-12-20T07:40:07.369Z,67.53
2018-12-20T07:42:34.988Z,56.70
2018-12-20T07:45:03.724Z,77.93
2018-12-20T07:47:31.355Z,71.70
2018-12-20T07:49:58.982Z,66.50
2018-12-20T07:52:27.549Z,69.00
2018-12-20T07:54:55.891Z,69.13
2018-12-20T07:57:25.400Z,63.33
2018-12-20T07:59:54.735Z,74.87
2018-12-20T08:02:22.355Z,67.80
2018-12-20T08:04:49.998Z,70.93
2018-12-20T08:07:18.463Z,63.20
2018-12-20T08:09:46.088Z,66.37
2018-12-20T08:12:14.590Z,75.87
2018-12-20T08:14:43.121Z,61.03
2018-12-20T08:17:10.786Z,71.27
2018-12-20T08:19:38.412Z,62.10
2018-12-20T08:22:06.073Z,63.23
2018-12-20T08:24:33.702Z,55.27
2018-12-20T08:27:01.361Z,62.23
2018-12-20T08:29:29.133Z,72.53
2018-12-20T08:31:56.751Z,71.43
2018-12-20T08:34:26.001Z,64.60
2018-12-20T08:36:55.002Z,65.80
2018-12-20T08:39:22.671Z,66.23
2018-12-20T08:41:50.290Z,63.87
2018-12-20T08:44:17.931Z,61.47
2018-12-20T08:46:45.553Z,65.53
2018-12-20T08:49:13.294Z,60.90
2018-12-20T08:51:48.840Z,71.90
2018-12-20T08:54:11.373Z,64.47
2018-12-20T08:56:39.813Z,64.43
2018-12-20T08:59:08.304Z,68.37
2018-12-20T09:01:35.930Z,61.10
2018-12-20T09:04:04.507Z,63.03
2018-12-20T09:06:32.944Z,60.77
2018-12-20T09:09:00.633Z,69.13
2018-12-20T09:11:28.264Z,67.33
2018-12-20T09:13:57.126Z,54.67
2018-12-20T09:16:25.232Z,67.40
2018-12-20T09:18:52.853Z,53.67
2018-12-20T09:21:20.483Z,58.40
2018-12-20T09:23:48.112Z,60.80
2018-12-20T09:26:16.589Z,56.17
2018-12-20T09:28:44.226Z,59.33
2018-12-20T09:31:11.880Z,53.33
2018-12-20T09:33:39.510Z,54.53
2018-12-20T09:36:07.126Z,68.63
2018-12-20T09:38:35.568Z,69.93
2018-12-20T09:41:03.419Z,59.10
2018-12-20T09:43:31.857Z,63.27
2018-12-20T09:45:59.486Z,52.17
2018-12-20T09:48:27.951Z,58.83
2018-12-20T09:50:56.536Z,57.27
2018-12-20T09:53:24.882Z,56.93
2018-12-20T09:55:52.507Z,64.20
2018-12-20T09:58:20.138Z,56.63
2018-12-20T10:00:47.756Z,57.03
2018-12-20T10:03:15.378Z,53.07
2018-12-20T10:05:43.013Z,53.73
2018-12-20T10:08:11.548Z,53.97
2018-12-20T10:10:39.170Z,51.80
2018-12-20T10:13:06.792Z,45.53
2018-12-20T10:15:34.421Z,49.03
2018-12-20T10:18:03.019Z,57.77
2018-12-20T10:20:30.664Z,57.43
2018-12-20T10:22:58.294Z,53.30
2018-12-20T10:25:27.799Z,57.23
2018-12-20T10:27:56.194Z,49.93
2018-12-20T10:30:23.818Z,52.33
2018-12-20T10:32:51.480Z,48.73
2018-12-20T10:35:19.155Z,61.07
2018-12-20T10:37:47.711Z,53.17
2018-12-20T10:40:15.417Z,50.60
2018-12-20T10:42:43.131Z,46.27
2018-12-20T10:45:10.747Z,47.97
2018-12-20T10:47:39.295Z,47.60
2018-12-20T10:50:07.986Z,47.23
2018-12-20T10:52:35.614Z,52.23
2018-12-20T10:55:04.811Z,49.47
2018-12-20T10:57:32.445Z,46.80
2018-12-20T11:00:00.909Z,45.10
2018-12-20T11:05:39.641Z,47.93
2018-12-20T11:08:13.637Z,49.97
2018-12-20T11:10:41.309Z,47.60
2018-12-20T11:13:11.294Z,47.37
2018-12-20T11:15:38.952Z,45.83
2018-12-20T11:18:07.386Z,40.47
2018-12-20T11:20:35.894Z,45.33
2018-12-20T11:23:03.580Z,49.33
2018-12-20T11:25:31.222Z,47.73
2018-12-20T11:27:58.844Z,42.50
2018-12-20T11:30:26.462Z,44.80
2018-12-20T11:32:54.835Z,49.23
2018-12-20T11:35:22.472Z,42.30
2018-12-20T11:37:50.098Z,50.77
2018-12-20T11:40:17.708Z,47.50
2018-12-20T11:42:45.376Z,39.17
2018-12-20T11:45:13.818Z,43.60
2018-12-20T11:47:45.841Z,46.77
2018-12-20T11:50:11.168Z,39.50
2018-12-20T11:52:42.485Z,44.67
2018-12-20T11:55:10.365Z,43.30
2018-12-20T11:57:38.006Z,41.87
2018-12-20T12:00:09.523Z,44.50
2018-12-20T12:02:37.182Z,39.67
2018-12-20T12:05:05.007Z,38.47
2018-12-20T12:07:33.552Z,36.90
2018-12-20T12:10:02.055Z,38.93
2018-12-20T12:12:30.619Z,37.93
2018-12-20T12:14:58.281Z,38.73
2018-12-20T12:17:26.391Z,41.30
2018-12-20T12:19:55.308Z,35.87
2018-12-20T12:22:25.065Z,44.23
2018-12-20T12:24:52.723Z,33.43
2018-12-20T12:27:20.360Z,37.93
2018-12-20T12:29:48.019Z,33.80
2018-12-20T12:32:15.640Z,39.10
2018-12-20T12:34:43.316Z,48.33
2018-12-20T12:37:11.099Z,34.90
2018-12-20T12:39:38.942Z,39.97
2018-12-20T12:42:07.464Z,39.27
2018-12-20T12:44:35.288Z,44.40
2018-12-20T12:47:04.894Z,33.97
2018-12-20T12:49:32.514Z,34.67
2018-12-20T12:52:00.149Z,40.07
2018-12-20T12:54:28.690Z,42.20
2018-12-20T12:56:56.328Z,43.50
2018-12-20T12:59:23.973Z,36.80
2018-12-20T13:01:51.593Z,38.67
2018-12-20T13:04:19.216Z,37.83
2018-12-20T13:06:46.843Z,36.40
2018-12-20T13:09:14.525Z,35.43
2018-12-20T13:11:42.146Z,42.97
2018-12-20T13:14:09.777Z,39.93
2018-12-20T13:16:37.418Z,37.50
2018-12-20T13:19:05.053Z,37.80
2018-12-20T13:21:33.000Z,35.60
2018-12-20T13:24:00.611Z,39.30
2018-12-20T13:26:28.235Z,32.20
2018-12-20T13:28:56.892Z,36.43
2018-12-20T13:31:25.343Z,36.40
2018-12-20T13:33:52.967Z,37.57
2018-12-20T13:36:20.752Z,38.10
2018-12-20T13:38:48.386Z,33.53
2018-12-20T13:41:16.041Z,34.97
2018-12-20T13:43:44.628Z,34.23
2018-12-20T13:46:12.422Z,36.50
2018-12-20T13:48:40.062Z,28.67
2018-12-20T13:51:07.695Z,33.87
2018-12-20T13:53:35.290Z,35.77
2018-12-20T13:56:02.959Z,33.00
2018-12-20T13:58:31.687Z,33.70
2018-12-20T14:01:00.367Z,41.83
2018-12-20T14:03:28.055Z,36.80
2018-12-20T14:05:56.592Z,38.47
2018-12-20T14:08:25.185Z,37.37
2018-12-20T14:10:52.810Z,43.10
2018-12-20T14:13:21.232Z,36.23
2018-12-20T14:15:49.773Z,32.90
2018-12-20T14:18:18.413Z,40.17
2018-12-20T14:20:46.828Z,38.10
2018-12-20T14:23:14.458Z,38.37
2018-12-20T14:25:42.937Z,45.60
2018-12-20T14:28:10.566Z,30.93
2018-12-20T14:30:38.228Z,38.77
2018-12-20T14:33:05.863Z,37.40
2018-12-20T14:35:33.511Z,38.30
2018-12-20T14:38:01.152Z,40.73
2018-12-20T14:40:28.771Z,43.17
2018-12-20T14:42:56.395Z,36.03
2018-12-20T14:45:24.872Z,41.23
2018-12-20T14:47:52.527Z,45.78
2018-12-20T14:50:20.146Z,49.63
2018-12-20T14:52:48.580Z,42.57
2018-12-20T14:55:16.223Z,41.70
2018-12-20T14:57:43.844Z,38.87
2018-12-20T15:00:11.538Z,46.27
2018-12-20T15:02:39.162Z,42.63
2018-12-20T15:05:07.280Z,36.03
2018-12-20T15:07:34.919Z,36.20
2018-12-20T15:10:02.932Z,41.80
2018-12-20T15:12:30.558Z,40.23
2018-12-20T15:14:58.187Z,42.70
2018-12-20T15:17:26.437Z,42.13
2018-12-20T15:19:55.086Z,40.60
2018-12-20T15:22:22.723Z,42.70
2018-12-20T15:24:50.425Z,41.43
2018-12-20T15:27:18.038Z,38.20
2018-12-20T15:29:45.667Z,40.67
2018-12-20T15:32:13.294Z,34.50
2018-12-20T15:34:40.925Z,37.13
2018-12-20T15:37:09.418Z,35.80
2018-12-20T15:39:37.047Z,40.30
2018-12-20T15:42:04.691Z,34.20
2018-12-20T15:44:32.319Z,36.33
2018-12-20T15:46:59.940Z,44.87
2018-12-20T15:49:27.570Z,44.70
2018-12-20T15:51:57.125Z,46.23
2018-12-20T15:54:25.341Z,48.07
2018-12-20T15:56:53.015Z,44.10
2018-12-20T15:59:20.640Z,49.83
2018-12-20T16:01:48.264Z,42.03
2018-12-20T16:04:16.898Z,43.43
2018-12-20T16:06:45.117Z,41.77
2018-12-20T16:09:12.757Z,48.27
2018-12-20T16:11:40.396Z,43.67
2018-12-20T16:14:08.091Z,41.00
2018-12-20T16:16:35.731Z,41.80
2018-12-20T16:19:05.067Z,45.80
2018-12-20T16:21:33.041Z,43.07
2018-12-20T16:24:00.654Z,51.57
2018-12-20T16:26:28.278Z,50.07
2018-12-20T16:28:56.716Z,44.43
2018-12-20T16:31:24.482Z,50.13
2018-12-20T16:33:52.121Z,41.97
2018-12-20T16:36:19.747Z,40.33
2018-12-20T16:38:47.373Z,45.20
2018-12-20T16:41:15.071Z,41.87
2018-12-20T16:43:42.689Z,42.50
2018-12-20T16:46:11.397Z,42.43
2018-12-20T16:48:39.067Z,44.63
2018-12-20T16:51:06.699Z,40.37
2018-12-20T16:53:34.334Z,45.67
2018-12-20T16:56:02.884Z,39.80
2018-12-20T16:58:30.516Z,40.17
2018-12-20T17:00:59.032Z,41.23
2018-12-20T17:03:26.653Z,37.33
2018-12-20T17:05:54.913Z,35.23
2018-12-20T17:08:22.528Z,44.10
2018-12-20T17:10:50.156Z,39.50
2018-12-20T17:13:17.788Z,36.67
2018-12-20T17:15:45.404Z,36.93
2018-12-20T17:18:13.038Z,40.57
2018-12-20T17:20:40.695Z,34.83
2018-12-20T17:23:08.484Z,35.37
2018-12-20T17:25:36.095Z,42.23
2018-12-20T17:28:03.805Z,32.43
2018-12-20T17:30:31.518Z,42.40
2018-12-20T17:32:59.208Z,38.27
2018-12-20T17:35:27.831Z,38.67
2018-12-20T17:37:55.599Z,39.43
2018-12-20T17:40:24.558Z,38.57
2018-12-20T17:42:52.185Z,36.20
2018-12-20T17:45:19.802Z,38.53
2018-12-20T17:47:47.434Z,37.33
2018-12-20T17:50:15.066Z,37.27
2018-12-20T17:52:42.701Z,48.77
2018-12-20T17:55:10.422Z,32.37
2018-12-20T17:57:38.047Z,38.87
2018-12-20T18:00:14.945Z,41.50
2018-12-20T18:02:43.523Z,38.07
2018-12-20T18:05:11.327Z,35.77
2018-12-20T18:07:39.144Z,43.03
2018-12-20T18:10:08.779Z,40.40
2018-12-20T18:12:37.229Z,38.37
2018-12-20T18:15:06.531Z,36.43
2018-12-20T18:17:34.208Z,35.83
2018-12-20T18:20:02.647Z,31.83
2018-12-20T18:22:31.055Z,33.87
2018-12-20T18:24:58.672Z,35.50
2018-12-20T18:27:27.412Z,31.47
2018-12-20T18:29:57.007Z,35.67
2018-12-20T18:32:25.348Z,30.43
2018-12-20T18:34:53.810Z,36.77
2018-12-20T18:37:21.438Z,30.67
2018-12-20T18:39:49.059Z,34.43
2018-12-20T18:42:16.842Z,29.80
2018-12-20T18:44:44.676Z,31.10
2018-12-20T18:49:57.698Z,28.60
2018-12-20T18:52:26.307Z,25.43
2018-12-20T18:54:54.933Z,30.57
2018-12-20T18:57:22.546Z,31.03
2018-12-20T18:59:50.213Z,32.50
2018-12-20T19:02:18.749Z,32.78
2018-12-20T19:04:47.290Z,30.20
2018-12-20T19:07:15.974Z,31.27
2018-12-20T19:09:43.601Z,30.60
2018-12-20T19:12:11.263Z,27.70
2018-12-20T19:14:38.907Z,30.87
2018-12-20T19:17:06.595Z,33.37
2018-12-20T19:19:35.296Z,33.63
2018-12-20T19:22:03.109Z,26.57
2018-12-20T19:24:30.708Z,30.23
2018-12-20T19:26:59.150Z,27.20
2018-12-20T19:29:26.779Z,29.63
2018-12-20T19:31:56.196Z,29.03
2018-12-20T19:34:23.953Z,31.07
2018-12-20T19:36:51.738Z,25.30
2018-12-20T19:39:19.418Z,31.53
2018-12-20T19:41:47.215Z,25.67
2018-12-20T19:44:15.024Z,26.63
2018-12-20T19:46:42.644Z,29.13
2018-12-20T19:49:10.543Z,25.60
2018-12-20T19:51:38.607Z,21.10
2018-12-20T19:54:07.217Z,24.33
2018-12-20T19:56:34.889Z,24.30
2018-12-20T19:59:02.553Z,23.00
2018-12-20T20:01:33.108Z,25.60
2018-12-20T20:04:00.947Z,28.50
2018-12-20T20:06:28.559Z,32.10
2018-12-20T20:08:56.206Z,26.87
2018-12-20T20:11:25.088Z,25.93
2018-12-20T20:13:52.782Z,28.43
2018-12-20T20:16:20.474Z,26.73
2018-12-20T20:18:48.111Z,28.20
2018-12-20T20:21:16.791Z,27.33
2018-12-20T20:23:44.584Z,27.60
2018-12-20T20:26:12.393Z,22.33
2018-12-20T20:28:40.048Z,25.57
2018-12-20T20:31:08.486Z,23.37
2018-12-20T20:33:36.972Z,25.40
2018-12-20T20:36:04.601Z,27.73
2018-12-20T20:38:33.294Z,27.07
2018-12-20T20:41:01.106Z,30.37
2018-12-20T20:43:28.777Z,23.90
2018-12-20T20:45:57.270Z,23.90
2018-12-20T20:48:25.008Z,24.47
2018-12-20T20:50:52.817Z,20.17
2018-12-20T20:53:21.634Z,26.20
2018-12-20T20:55:49.437Z,23.27
2018-12-20T20:58:17.231Z,24.13
2018-12-20T21:00:45.020Z,21.40
2018-12-20T21:03:12.640Z,29.07
2018-12-20T21:05:40.283Z,39.60
2018-12-20T21:08:07.911Z,34.57
2018-12-20T21:10:35.551Z,35.50
2018-12-20T21:13:03.503Z,32.37
2018-12-20T21:15:31.296Z,26.03
2018-12-20T21:17:59.111Z,24.33
2018-12-20T21:20:30.920Z,24.50
2018-12-20T21:22:57.396Z,23.23
2018-12-20T21:25:25.976Z,22.07
2018-12-20T21:27:54.787Z,21.90
2018-12-20T21:30:22.927Z,25.90
2018-12-20T21:32:50.579Z,19.27
2018-12-20T21:35:18.369Z,26.57
2018-12-20T21:37:46.023Z,22.63
2018-12-20T21:40:13.655Z,22.20
2018-12-20T21:42:41.287Z,21.97
2018-12-20T21:45:09.011Z,18.87
2018-12-20T21:47:36.671Z,23.77
2018-12-20T21:50:06.190Z,15.97
2018-12-20T21:52:34.905Z,18.17
2018-12-20T21:55:02.598Z,18.87
2018-12-20T21:57:30.242Z,19.10
2018-12-20T22:00:01.275Z,18.40
2018-12-20T22:02:27.601Z,15.30
2018-12-20T22:04:55.619Z,15.40
2018-12-20T22:07:23.263Z,14.33
2018-12-20T22:09:50.946Z,17.97
2018-12-20T22:12:18.627Z,13.47
2018-12-20T22:14:46.257Z,14.40
2018-12-20T22:17:14.133Z,15.67
2018-12-20T22:19:41.770Z,12.73
2018-12-20T22:22:09.387Z,16.30
2018-12-20T22:24:37.006Z,13.50
2018-12-20T22:27:04.689Z,15.67
2018-12-20T22:29:33.152Z,14.03
2018-12-20T22:32:00.866Z,12.80
2018-12-20T22:34:28.658Z,14.50
2018-12-20T22:36:56.294Z,14.10
2018-12-20T22:39:25.163Z,12.93
2018-12-20T22:41:52.841Z,12.90
2018-12-20T22:44:20.635Z,11.73
2018-12-20T22:46:48.252Z,11.90
2018-12-20T22:49:15.906Z,14.77
2018-12-20T22:51:44.449Z,13.10
2018-12-20T22:54:13.162Z,16.00
2018-12-20T22:56:40.971Z,16.47
2018-12-20T22:59:08.770Z,11.80
2018-12-20T23:01:36.561Z,14.67
2018-12-20T23:04:04.382Z,11.97
2018-12-20T23:06:32.000Z,9.53
2018-12-20T23:08:59.809Z,10.87
2018-12-20T23:11:27.668Z,8.50
2018-12-20T23:13:56.394Z,13.57
2018-12-20T23:16:24.901Z,11.40
2018-12-20T23:18:52.711Z,11.90
2018-12-20T23:21:21.271Z,10.80
2018-12-20T23:23:48.933Z,11.27
2018-12-20T23:26:16.727Z,12.13
2018-12-20T23:28:44.435Z,11.70
2018-12-20T23:31:12.193Z,10.70
2018-12-20T23:33:40.031Z,9.00
2018-12-20T23:36:07.842Z,9.87
2018-12-20T23:38:35.626Z,9.57
2018-12-20T23:41:04.418Z,8.40
2018-12-20T23:43:32.214Z,11.23
2018-12-20T23:46:00.678Z,8.53
2018-12-20T23:48:28.297Z,6.83
2018-12-20T23:50:56.831Z,13.90
2018-12-20T23:53:26.035Z,9.30
2018-12-20T23:55:54.810Z,10.13
2018-12-20T23:58:22.492Z,7.50
